sensor_id;sensor_type;location;lat;lon;timestamp;P1;durP1;ratioP1;P2;durP2;ratioP2
1721;SDS011;858;53.190;8.596;2024-02-26T00:01:50;14.60;;;10.53;;
1721;SDS011;858;53.190;8.596;2024-02-26T00:04:18;15.60;;;11.70;;
1721;SDS011;858;53.190;8.596;2024-02-26T00:06:46;18.07;;;11.37;;
1721;SDS011;858;53.190;8.596;2024-02-26T00:09:13;14.80;;;11.13;;
1721;SDS011;858;53.190;8.596;2024-02-26T00:11:39;16.23;;;11.20;;
1721;SDS011;858;53.190;8.596;2024-02-26T00:14:06;13.97;;;10.20;;
1721;SDS011;858;53.190;8.596;2024-02-26T00:16:32;15.33;;;10.90;;
1721;SDS011;858;53.190;8.596;2024-02-26T00:19:00;13.87;;;10.77;;
1721;SDS011;858;53.190;8.596;2024-02-26T00:21:28;14.57;;;10.50;;
1721;SDS011;858;53.190;8.596;2024-02-26T00:23:55;16.20;;;10.50;;
1721;SDS011;858;53.190;8.596;2024-02-26T00:26:21;14.17;;;10.00;;
1721;SDS011;858;53.190;8.596;2024-02-26T00:28:49;14.57;;;10.93;;
1721;SDS011;858;53.190;8.596;2024-02-26T00:31:16;12.23;;;9.40;;
1721;SDS011;858;53.190;8.596;2024-02-26T00:33:42;13.03;;;10.20;;
1721;SDS011;858;53.190;8.596;2024-02-26T00:36:08;14.87;;;11.17;;
1721;SDS011;858;53.190;8.596;2024-02-26T00:38:36;15.90;;;10.57;;
1721;SDS011;858;53.190;8.596;2024-02-26T00:41:04;15.20;;;11.40;;
1721;SDS011;858;53.190;8.596;2024-02-26T00:43:31;13.73;;;10.03;;
1721;SDS011;858;53.190;8.596;2024-02-26T00:45:57;18.73;;;10.40;;
1721;SDS011;858;53.190;8.596;2024-02-26T00:48:23;14.37;;;10.17;;
1721;SDS011;858;53.190;8.596;2024-02-26T00:50:51;16.50;;;10.70;;
1721;SDS011;858;53.190;8.596;2024-02-26T00:53:17;13.60;;;9.73;;
1721;SDS011;858;53.190;8.596;2024-02-26T00:55:49;11.43;;;9.80;;
1721;SDS011;858;53.190;8.596;2024-02-26T00:58:16;14.23;;;10.27;;
1721;SDS011;858;53.190;8.596;2024-02-26T01:00:43;13.87;;;9.93;;
1721;SDS011;858;53.190;8.596;2024-02-26T01:03:09;11.43;;;8.30;;
1721;SDS011;858;53.190;8.596;2024-02-26T01:05:36;12.63;;;8.80;;
1721;SDS011;858;53.190;8.596;2024-02-26T01:08:03;12.97;;;9.20;;
1721;SDS011;858;53.190;8.596;2024-02-26T01:10:30;13.70;;;8.93;;
1721;SDS011;858;53.190;8.596;2024-02-26T01:12:58;14.73;;;9.80;;
1721;SDS011;858;53.190;8.596;2024-02-26T01:15:24;14.10;;;9.67;;
1721;SDS011;858;53.190;8.596;2024-02-26T01:17:50;14.93;;;9.63;;
1721;SDS011;858;53.190;8.596;2024-02-26T01:20:17;13.93;;;9.60;;
1721;SDS011;858;53.190;8.596;2024-02-26T01:22:44;10.93;;;8.20;;
1721;SDS011;858;53.190;8.596;2024-02-26T01:25:10;13.90;;;9.00;;
1721;SDS011;858;53.190;8.596;2024-02-26T01:27:37;14.00;;;9.10;;
1721;SDS011;858;53.190;8.596;2024-02-26T01:30:06;15.33;;;10.10;;
1721;SDS011;858;53.190;8.596;2024-02-26T01:32:33;11.23;;;9.43;;
1721;SDS011;858;53.190;8.596;2024-02-26T01:35:01;15.53;;;9.77;;
1721;SDS011;858;53.190;8.596;2024-02-26T01:37:28;11.53;;;9.13;;
1721;SDS011;858;53.190;8.596;2024-02-26T01:39:54;16.00;;;9.87;;
1721;SDS011;858;53.190;8.596;2024-02-26T01:42:21;13.90;;;9.27;;
1721;SDS011;858;53.190;8.596;2024-02-26T01:44:47;16.53;;;11.03;;
1721;SDS011;858;53.190;8.596;2024-02-26T01:47:15;13.73;;;9.33;;
1721;SDS011;858;53.190;8.596;2024-02-26T01:49:42;14.93;;;9.93;;
1721;SDS011;858;53.190;8.596;2024-02-26T01:52:09;15.07;;;10.33;;
1721;SDS011;858;53.190;8.596;2024-02-26T01:54:36;16.53;;;10.83;;
1721;SDS011;858;53.190;8.596;2024-02-26T01:57:03;14.97;;;10.73;;
1721;SDS011;858;53.190;8.596;2024-02-26T01:59:31;17.30;;;10.80;;
1721;SDS011;858;53.190;8.596;2024-02-26T02:01:58;15.57;;;10.80;;
1721;SDS011;858;53.190;8.596;2024-02-26T02:04:26;15.83;;;10.50;;
1721;SDS011;858;53.190;8.596;2024-02-26T02:06:54;14.60;;;10.23;;
1721;SDS011;858;53.190;8.596;2024-02-26T02:09:21;16.10;;;11.23;;
1721;SDS011;858;53.190;8.596;2024-02-26T02:11:48;17.20;;;11.63;;
1721;SDS011;858;53.190;8.596;2024-02-26T02:14:15;15.10;;;10.40;;
1721;SDS011;858;53.190;8.596;2024-02-26T02:16:41;17.70;;;10.80;;
1721;SDS011;858;53.190;8.596;2024-02-26T02:19:08;15.47;;;10.93;;
1721;SDS011;858;53.190;8.596;2024-02-26T02:21:36;17.50;;;11.20;;
1721;SDS011;858;53.190;8.596;2024-02-26T02:24:02;16.33;;;11.53;;
1721;SDS011;858;53.190;8.596;2024-02-26T02:26:29;17.53;;;11.77;;
1721;SDS011;858;53.190;8.596;2024-02-26T02:28:55;16.17;;;10.90;;
1721;SDS011;858;53.190;8.596;2024-02-26T02:31:22;17.43;;;12.97;;
1721;SDS011;858;53.190;8.596;2024-02-26T02:33:49;15.00;;;10.07;;
1721;SDS011;858;53.190;8.596;2024-02-26T02:36:15;18.10;;;12.80;;
1721;SDS011;858;53.190;8.596;2024-02-26T02:38:50;18.57;;;12.10;;
1721;SDS011;858;53.190;8.596;2024-02-26T02:41:17;13.10;;;10.40;;
1721;SDS011;858;53.190;8.596;2024-02-26T02:43:43;15.80;;;10.90;;
1721;SDS011;858;53.190;8.596;2024-02-26T02:46:09;19.33;;;12.50;;
1721;SDS011;858;53.190;8.596;2024-02-26T02:48:36;14.87;;;11.00;;
1721;SDS011;858;53.190;8.596;2024-02-26T02:51:03;16.53;;;11.90;;
1721;SDS011;858;53.190;8.596;2024-02-26T02:53:29;17.87;;;10.50;;
1721;SDS011;858;53.190;8.596;2024-02-26T02:55:57;20.73;;;12.60;;
1721;SDS011;858;53.190;8.596;2024-02-26T02:58:24;21.83;;;12.80;;
1721;SDS011;858;53.190;8.596;2024-02-26T03:00:50;17.60;;;12.47;;
1721;SDS011;858;53.190;8.596;2024-02-26T03:03:17;18.87;;;12.00;;
1721;SDS011;858;53.190;8.596;2024-02-26T03:05:43;18.73;;;11.30;;
1721;SDS011;858;53.190;8.596;2024-02-26T03:08:10;15.43;;;10.70;;
1721;SDS011;858;53.190;8.596;2024-02-26T03:10:37;17.53;;;11.83;;
1721;SDS011;858;53.190;8.596;2024-02-26T03:13:05;15.40;;;11.40;;
1721;SDS011;858;53.190;8.596;2024-02-26T03:15:32;20.07;;;11.40;;
1721;SDS011;858;53.190;8.596;2024-02-26T03:17:58;20.67;;;11.70;;
1721;SDS011;858;53.190;8.596;2024-02-26T03:20:25;15.83;;;10.77;;
1721;SDS011;858;53.190;8.596;2024-02-26T03:22:51;16.73;;;11.40;;
1721;SDS011;858;53.190;8.596;2024-02-26T03:25:18;18.57;;;11.77;;
1721;SDS011;858;53.190;8.596;2024-02-26T03:27:44;14.13;;;10.80;;
1721;SDS011;858;53.190;8.596;2024-02-26T03:30:12;15.57;;;10.80;;
1721;SDS011;858;53.190;8.596;2024-02-26T03:32:38;14.93;;;10.77;;
1721;SDS011;858;53.190;8.596;2024-02-26T03:35:05;16.67;;;11.47;;
1721;SDS011;858;53.190;8.596;2024-02-26T03:37:32;13.80;;;10.27;;
1721;SDS011;858;53.190;8.596;2024-02-26T03:39:59;18.20;;;10.70;;
1721;SDS011;858;53.190;8.596;2024-02-26T03:42:26;15.23;;;10.27;;
1721;SDS011;858;53.190;8.596;2024-02-26T03:44:52;14.70;;;11.00;;
1721;SDS011;858;53.190;8.596;2024-02-26T03:47:20;15.00;;;9.97;;
1721;SDS011;858;53.190;8.596;2024-02-26T03:49:47;14.40;;;9.97;;
1721;SDS011;858;53.190;8.596;2024-02-26T03:52:13;15.87;;;9.80;;
1721;SDS011;858;53.190;8.596;2024-02-26T03:54:40;16.70;;;11.27;;
1721;SDS011;858;53.190;8.596;2024-02-26T03:57:07;16.07;;;10.60;;
1721;SDS011;858;53.190;8.596;2024-02-26T03:59:34;14.47;;;10.20;;
1721;SDS011;858;53.190;8.596;2024-02-26T04:02:01;14.07;;;9.80;;
1721;SDS011;858;53.190;8.596;2024-02-26T04:04:29;17.33;;;11.30;;
1721;SDS011;858;53.190;8.596;2024-02-26T04:06:55;13.13;;;9.37;;
1721;SDS011;858;53.190;8.596;2024-02-26T04:09:22;14.10;;;9.83;;
1721;SDS011;858;53.190;8.596;2024-02-26T04:11:48;14.47;;;9.60;;
1721;SDS011;858;53.190;8.596;2024-02-26T04:14:15;13.57;;;9.50;;
1721;SDS011;858;53.190;8.596;2024-02-26T04:16:41;16.67;;;11.60;;
1721;SDS011;858;53.190;8.596;2024-02-26T04:19:08;15.60;;;10.70;;
1721;SDS011;858;53.190;8.596;2024-02-26T04:21:36;16.40;;;9.57;;
1721;SDS011;858;53.190;8.596;2024-02-26T04:24:02;18.90;;;11.00;;
1721;SDS011;858;53.190;8.596;2024-02-26T04:26:29;19.17;;;11.77;;
1721;SDS011;858;53.190;8.596;2024-02-26T04:28:56;17.23;;;11.57;;
1721;SDS011;858;53.190;8.596;2024-02-26T04:31:22;15.73;;;10.97;;
1721;SDS011;858;53.190;8.596;2024-02-26T04:33:49;21.57;;;12.90;;
1721;SDS011;858;53.190;8.596;2024-02-26T04:36:15;17.80;;;11.67;;
1721;SDS011;858;53.190;8.596;2024-02-26T04:38:45;20.40;;;12.83;;
1721;SDS011;858;53.190;8.596;2024-02-26T04:41:11;21.00;;;12.23;;
1721;SDS011;858;53.190;8.596;2024-02-26T04:43:38;20.33;;;12.33;;
1721;SDS011;858;53.190;8.596;2024-02-26T04:46:06;21.10;;;10.83;;
1721;SDS011;858;53.190;8.596;2024-02-26T04:48:33;22.97;;;13.17;;
1721;SDS011;858;53.190;8.596;2024-02-26T04:50:59;23.57;;;13.87;;
1721;SDS011;858;53.190;8.596;2024-02-26T04:53:26;22.70;;;12.87;;
1721;SDS011;858;53.190;8.596;2024-02-26T04:55:54;26.50;;;15.47;;
1721;SDS011;858;53.190;8.596;2024-02-26T04:58:20;24.83;;;14.73;;
1721;SDS011;858;53.190;8.596;2024-02-26T05:00:47;24.53;;;14.13;;
1721;SDS011;858;53.190;8.596;2024-02-26T05:03:14;24.50;;;14.17;;
1721;SDS011;858;53.190;8.596;2024-02-26T05:05:41;26.00;;;13.70;;
1721;SDS011;858;53.190;8.596;2024-02-26T05:08:07;23.90;;;14.40;;
1721;SDS011;858;53.190;8.596;2024-02-26T05:10:33;25.97;;;13.60;;
1721;SDS011;858;53.190;8.596;2024-02-26T05:13:05;32.60;;;17.40;;
1721;SDS011;858;53.190;8.596;2024-02-26T05:15:32;30.43;;;16.30;;
1721;SDS011;858;53.190;8.596;2024-02-26T05:17:58;31.20;;;17.60;;
1721;SDS011;858;53.190;8.596;2024-02-26T05:20:25;36.17;;;17.60;;
1721;SDS011;858;53.190;8.596;2024-02-26T05:22:52;34.30;;;18.47;;
1721;SDS011;858;53.190;8.596;2024-02-26T05:25:18;33.50;;;18.40;;
1721;SDS011;858;53.190;8.596;2024-02-26T05:27:44;33.60;;;18.53;;
1721;SDS011;858;53.190;8.596;2024-02-26T05:30:12;40.10;;;19.80;;
1721;SDS011;858;53.190;8.596;2024-02-26T05:32:39;42.40;;;18.70;;
1721;SDS011;858;53.190;8.596;2024-02-26T05:35:06;37.37;;;19.93;;
1721;SDS011;858;53.190;8.596;2024-02-26T05:37:34;40.70;;;19.50;;
1721;SDS011;858;53.190;8.596;2024-02-26T05:40:01;38.57;;;20.90;;
1721;SDS011;858;53.190;8.596;2024-02-26T05:42:29;39.00;;;20.50;;
1721;SDS011;858;53.190;8.596;2024-02-26T05:44:56;40.97;;;19.77;;
1721;SDS011;858;53.190;8.596;2024-02-26T05:47:24;47.87;;;23.30;;
1721;SDS011;858;53.190;8.596;2024-02-26T05:49:50;39.87;;;22.03;;
1721;SDS011;858;53.190;8.596;2024-02-26T05:52:17;39.27;;;20.90;;
1721;SDS011;858;53.190;8.596;2024-02-26T05:54:44;40.23;;;22.03;;
1721;SDS011;858;53.190;8.596;2024-02-26T05:57:11;38.87;;;20.40;;
1721;SDS011;858;53.190;8.596;2024-02-26T05:59:37;38.97;;;19.00;;
1721;SDS011;858;53.190;8.596;2024-02-26T06:02:04;42.90;;;19.97;;
1721;SDS011;858;53.190;8.596;2024-02-26T06:04:32;37.17;;;19.00;;
1721;SDS011;858;53.190;8.596;2024-02-26T06:06:58;40.70;;;18.63;;
1721;SDS011;858;53.190;8.596;2024-02-26T06:09:25;40.60;;;17.80;;
1721;SDS011;858;53.190;8.596;2024-02-26T06:11:51;38.40;;;20.40;;
1721;SDS011;858;53.190;8.596;2024-02-26T06:14:18;33.60;;;20.00;;
1721;SDS011;858;53.190;8.596;2024-02-26T06:16:45;36.47;;;18.13;;
1721;SDS011;858;53.190;8.596;2024-02-26T06:19:12;37.00;;;19.67;;
1721;SDS011;858;53.190;8.596;2024-02-26T06:21:40;33.50;;;19.17;;
1721;SDS011;858;53.190;8.596;2024-02-26T06:24:06;38.87;;;19.37;;
1721;SDS011;858;53.190;8.596;2024-02-26T06:26:33;39.67;;;19.97;;
1721;SDS011;858;53.190;8.596;2024-02-26T06:28:59;39.23;;;18.97;;
1721;SDS011;858;53.190;8.596;2024-02-26T06:31:25;38.53;;;21.40;;
1721;SDS011;858;53.190;8.596;2024-02-26T06:33:52;37.77;;;19.93;;
1721;SDS011;858;53.190;8.596;2024-02-26T06:36:20;36.80;;;19.33;;
1721;SDS011;858;53.190;8.596;2024-02-26T06:38:48;37.17;;;19.87;;
1721;SDS011;858;53.190;8.596;2024-02-26T06:41:15;39.17;;;20.60;;
1721;SDS011;858;53.190;8.596;2024-02-26T06:43:42;38.23;;;20.27;;
1721;SDS011;858;53.190;8.596;2024-02-26T06:46:08;39.60;;;19.70;;
1721;SDS011;858;53.190;8.596;2024-02-26T06:48:34;40.20;;;21.17;;
1721;SDS011;858;53.190;8.596;2024-02-26T06:51:02;35.83;;;20.20;;
1721;SDS011;858;53.190;8.596;2024-02-26T06:53:28;35.73;;;19.20;;
1721;SDS011;858;53.190;8.596;2024-02-26T06:55:56;36.77;;;17.87;;
1721;SDS011;858;53.190;8.596;2024-02-26T06:58:22;33.33;;;17.63;;
1721;SDS011;858;53.190;8.596;2024-02-26T07:00:50;30.30;;;17.47;;
1721;SDS011;858;53.190;8.596;2024-02-26T07:03:16;32.80;;;17.47;;
1721;SDS011;858;53.190;8.596;2024-02-26T07:05:43;34.90;;;20.33;;
1721;SDS011;858;53.190;8.596;2024-02-26T07:08:11;35.70;;;17.23;;
1721;SDS011;858;53.190;8.596;2024-02-26T07:10:37;30.43;;;16.97;;
1721;SDS011;858;53.190;8.596;2024-02-26T07:13:05;30.60;;;15.13;;
1721;SDS011;858;53.190;8.596;2024-02-26T07:15:32;29.87;;;17.23;;
1721;SDS011;858;53.190;8.596;2024-02-26T07:17:59;26.10;;;15.57;;
1721;SDS011;858;53.190;8.596;2024-02-26T07:20:28;29.77;;;17.27;;
1721;SDS011;858;53.190;8.596;2024-02-26T07:22:54;24.20;;;15.13;;
1721;SDS011;858;53.190;8.596;2024-02-26T07:25:21;28.60;;;14.40;;
1721;SDS011;858;53.190;8.596;2024-02-26T07:27:48;30.30;;;15.10;;
1721;SDS011;858;53.190;8.596;2024-02-26T07:30:16;24.70;;;15.43;;
1721;SDS011;858;53.190;8.596;2024-02-26T07:32:43;26.57;;;15.00;;
1721;SDS011;858;53.190;8.596;2024-02-26T07:35:09;25.60;;;15.03;;
1721;SDS011;858;53.190;8.596;2024-02-26T07:37:36;27.43;;;16.20;;
1721;SDS011;858;53.190;8.596;2024-02-26T07:40:03;22.10;;;13.20;;
1721;SDS011;858;53.190;8.596;2024-02-26T07:42:29;27.27;;;15.50;;
1721;SDS011;858;53.190;8.596;2024-02-26T07:44:56;26.00;;;14.70;;
1721;SDS011;858;53.190;8.596;2024-02-26T07:47:24;24.60;;;14.30;;
1721;SDS011;858;53.190;8.596;2024-02-26T07:49:50;27.83;;;15.10;;
1721;SDS011;858;53.190;8.596;2024-02-26T07:52:16;20.40;;;13.43;;
1721;SDS011;858;53.190;8.596;2024-02-26T07:54:43;22.47;;;15.07;;
1721;SDS011;858;53.190;8.596;2024-02-26T07:57:09;24.27;;;14.63;;
1721;SDS011;858;53.190;8.596;2024-02-26T07:59:36;27.90;;;14.53;;
1721;SDS011;858;53.190;8.596;2024-02-26T08:02:02;30.50;;;15.67;;
1721;SDS011;858;53.190;8.596;2024-02-26T08:04:32;28.97;;;16.40;;
1721;SDS011;858;53.190;8.596;2024-02-26T08:06:58;22.47;;;13.77;;
1721;SDS011;858;53.190;8.596;2024-02-26T08:09:25;29.00;;;15.20;;
1721;SDS011;858;53.190;8.596;2024-02-26T08:11:52;22.73;;;14.50;;
1721;SDS011;858;53.190;8.596;2024-02-26T08:14:20;23.40;;;14.00;;
1721;SDS011;858;53.190;8.596;2024-02-26T08:16:46;25.40;;;14.47;;
1721;SDS011;858;53.190;8.596;2024-02-26T08:19:14;23.33;;;13.57;;
1721;SDS011;858;53.190;8.596;2024-02-26T08:21:43;23.97;;;15.20;;
1721;SDS011;858;53.190;8.596;2024-02-26T08:24:10;24.57;;;13.30;;
1721;SDS011;858;53.190;8.596;2024-02-26T08:26:36;26.80;;;15.10;;
1721;SDS011;858;53.190;8.596;2024-02-26T08:29:03;28.10;;;14.77;;
1721;SDS011;858;53.190;8.596;2024-02-26T08:31:29;28.20;;;15.63;;
1721;SDS011;858;53.190;8.596;2024-02-26T08:33:56;22.23;;;13.90;;
1721;SDS011;858;53.190;8.596;2024-02-26T08:36:23;20.40;;;13.83;;
1721;SDS011;858;53.190;8.596;2024-02-26T08:38:51;19.23;;;12.40;;
1721;SDS011;858;53.190;8.596;2024-02-26T08:41:18;24.30;;;13.10;;
1721;SDS011;858;53.190;8.596;2024-02-26T08:43:45;25.03;;;13.30;;
1721;SDS011;858;53.190;8.596;2024-02-26T08:46:12;21.30;;;13.90;;
1721;SDS011;858;53.190;8.596;2024-02-26T08:48:38;23.30;;;13.53;;
1721;SDS011;858;53.190;8.596;2024-02-26T08:51:05;22.13;;;13.40;;
1721;SDS011;858;53.190;8.596;2024-02-26T08:53:32;21.57;;;12.27;;
1721;SDS011;858;53.190;8.596;2024-02-26T08:56:00;23.40;;;13.00;;
1721;SDS011;858;53.190;8.596;2024-02-26T08:58:27;25.63;;;13.50;;
1721;SDS011;858;53.190;8.596;2024-02-26T09:00:53;30.97;;;17.10;;
1721;SDS011;858;53.190;8.596;2024-02-26T09:03:20;25.70;;;14.07;;
1721;SDS011;858;53.190;8.596;2024-02-26T09:05:46;24.67;;;15.10;;
1721;SDS011;858;53.190;8.596;2024-02-26T09:08:12;22.40;;;13.60;;
1721;SDS011;858;53.190;8.596;2024-02-26T09:10:40;22.67;;;13.23;;
1721;SDS011;858;53.190;8.596;2024-02-26T09:13:08;23.33;;;14.33;;
1721;SDS011;858;53.190;8.596;2024-02-26T09:15:36;26.47;;;15.13;;
1721;SDS011;858;53.190;8.596;2024-02-26T09:18:03;23.67;;;13.53;;
1721;SDS011;858;53.190;8.596;2024-02-26T09:20:29;23.37;;;13.60;;
1721;SDS011;858;53.190;8.596;2024-02-26T09:22:56;25.43;;;14.60;;
1721;SDS011;858;53.190;8.596;2024-02-26T09:25:24;19.97;;;13.43;;
1721;SDS011;858;53.190;8.596;2024-02-26T09:27:50;23.90;;;15.37;;
1721;SDS011;858;53.190;8.596;2024-02-26T09:30:18;22.13;;;13.70;;
1721;SDS011;858;53.190;8.596;2024-02-26T09:32:45;22.00;;;13.13;;
1721;SDS011;858;53.190;8.596;2024-02-26T09:35:12;26.43;;;13.97;;
1721;SDS011;858;53.190;8.596;2024-02-26T09:37:39;22.40;;;13.97;;
1721;SDS011;858;53.190;8.596;2024-02-26T09:40:06;18.95;;;14.07;;
1721;SDS011;858;53.190;8.596;2024-02-26T09:42:35;23.10;;;14.23;;
1721;SDS011;858;53.190;8.596;2024-02-26T09:45:02;23.83;;;13.53;;
1721;SDS011;858;53.190;8.596;2024-02-26T09:47:34;21.43;;;13.73;;
1721;SDS011;858;53.190;8.596;2024-02-26T09:50:02;26.10;;;14.90;;
1721;SDS011;858;53.190;8.596;2024-02-26T09:52:30;23.63;;;13.47;;
1721;SDS011;858;53.190;8.596;2024-02-26T09:55:00;25.50;;;15.30;;
1721;SDS011;858;53.190;8.596;2024-02-26T09:57:28;24.60;;;14.50;;
1721;SDS011;858;53.190;8.596;2024-02-26T09:59:55;27.00;;;14.73;;
1721;SDS011;858;53.190;8.596;2024-02-26T10:02:25;24.80;;;14.40;;
1721;SDS011;858;53.190;8.596;2024-02-26T10:04:53;23.87;;;14.53;;
1721;SDS011;858;53.190;8.596;2024-02-26T10:07:23;20.70;;;13.27;;
1721;SDS011;858;53.190;8.596;2024-02-26T10:09:51;26.17;;;14.47;;
1721;SDS011;858;53.190;8.596;2024-02-26T10:12:18;25.10;;;14.80;;
1721;SDS011;858;53.190;8.596;2024-02-26T10:14:44;22.37;;;15.90;;
1721;SDS011;858;53.190;8.596;2024-02-26T10:17:10;21.70;;;13.80;;
1721;SDS011;858;53.190;8.596;2024-02-26T10:19:37;22.00;;;12.87;;
1721;SDS011;858;53.190;8.596;2024-02-26T10:22:05;23.60;;;13.73;;
1721;SDS011;858;53.190;8.596;2024-02-26T10:24:33;26.30;;;13.13;;
1721;SDS011;858;53.190;8.596;2024-02-26T10:27:01;23.47;;;13.20;;
1721;SDS011;858;53.190;8.596;2024-02-26T10:29:29;18.33;;;12.53;;
1721;SDS011;858;53.190;8.596;2024-02-26T10:31:55;19.00;;;13.10;;
1721;SDS011;858;53.190;8.596;2024-02-26T10:34:24;17.47;;;11.60;;
1721;SDS011;858;53.190;8.596;2024-02-26T10:36:51;19.10;;;12.83;;
1721;SDS011;858;53.190;8.596;2024-02-26T10:39:18;22.57;;;12.10;;
1721;SDS011;858;53.190;8.596;2024-02-26T10:41:45;19.60;;;11.43;;
1721;SDS011;858;53.190;8.596;2024-02-26T10:44:12;17.60;;;11.73;;
1721;SDS011;858;53.190;8.596;2024-02-26T10:46:40;18.17;;;12.17;;
1721;SDS011;858;53.190;8.596;2024-02-26T10:49:12;20.77;;;11.57;;
1721;SDS011;858;53.190;8.596;2024-02-26T10:51:39;18.40;;;12.40;;
1721;SDS011;858;53.190;8.596;2024-02-26T10:54:07;16.83;;;12.37;;
1721;SDS011;858;53.190;8.596;2024-02-26T10:56:39;16.70;;;11.40;;
1721;SDS011;858;53.190;8.596;2024-02-26T10:59:08;16.13;;;11.80;;
1721;SDS011;858;53.190;8.596;2024-02-26T11:01:35;15.40;;;11.60;;
1721;SDS011;858;53.190;8.596;2024-02-26T11:04:03;15.07;;;10.50;;
1721;SDS011;858;53.190;8.596;2024-02-26T11:06:30;14.70;;;10.80;;
1721;SDS011;858;53.190;8.596;2024-02-26T11:08:59;16.83;;;10.27;;
1721;SDS011;858;53.190;8.596;2024-02-26T11:11:26;13.23;;;9.47;;
1721;SDS011;858;53.190;8.596;2024-02-26T11:13:55;17.80;;;11.97;;
1721;SDS011;858;53.190;8.596;2024-02-26T11:16:22;13.57;;;10.47;;
1721;SDS011;858;53.190;8.596;2024-02-26T11:18:48;16.73;;;10.97;;
1721;SDS011;858;53.190;8.596;2024-02-26T11:21:15;16.53;;;10.97;;
1721;SDS011;858;53.190;8.596;2024-02-26T11:23:42;13.67;;;9.30;;
1721;SDS011;858;53.190;8.596;2024-02-26T11:26:09;12.97;;;9.90;;
1721;SDS011;858;53.190;8.596;2024-02-26T11:28:36;14.67;;;9.27;;
1721;SDS011;858;53.190;8.596;2024-02-26T11:31:06;15.83;;;11.50;;
1721;SDS011;858;53.190;8.596;2024-02-26T11:33:33;12.73;;;10.30;;
1721;SDS011;858;53.190;8.596;2024-02-26T11:36:00;13.00;;;10.10;;
1721;SDS011;858;53.190;8.596;2024-02-26T11:38:28;11.23;;;9.13;;
1721;SDS011;858;53.190;8.596;2024-02-26T11:40:54;12.70;;;8.83;;
1721;SDS011;858;53.190;8.596;2024-02-26T11:43:23;12.40;;;8.63;;
1721;SDS011;858;53.190;8.596;2024-02-26T11:45:52;13.33;;;9.50;;
1721;SDS011;858;53.190;8.596;2024-02-26T11:48:23;10.67;;;8.20;;
1721;SDS011;858;53.190;8.596;2024-02-26T11:50:50;12.60;;;8.90;;
1721;SDS011;858;53.190;8.596;2024-02-26T11:53:24;11.67;;;8.43;;
1721;SDS011;858;53.190;8.596;2024-02-26T11:58:37;11.43;;;8.67;;
1721;SDS011;858;53.190;8.596;2024-02-26T12:01:06;14.07;;;10.00;;
1721;SDS011;858;53.190;8.596;2024-02-26T12:03:33;12.47;;;8.73;;
1721;SDS011;858;53.190;8.596;2024-02-26T12:06:00;12.63;;;9.67;;
1721;SDS011;858;53.190;8.596;2024-02-26T12:08:27;14.47;;;9.47;;
1721;SDS011;858;53.190;8.596;2024-02-26T12:10:54;12.97;;;9.57;;
1721;SDS011;858;53.190;8.596;2024-02-26T12:13:21;11.47;;;8.40;;
1721;SDS011;858;53.190;8.596;2024-02-26T12:15:57;13.63;;;9.53;;
1721;SDS011;858;53.190;8.596;2024-02-26T12:18:24;11.87;;;8.33;;
1721;SDS011;858;53.190;8.596;2024-02-26T12:20:59;12.70;;;8.67;;
1721;SDS011;858;53.190;8.596;2024-02-26T12:23:26;16.00;;;10.20;;
1721;SDS011;858;53.190;8.596;2024-02-26T12:25:53;14.93;;;10.30;;
1721;SDS011;858;53.190;8.596;2024-02-26T12:28:20;14.50;;;9.43;;
1721;SDS011;858;53.190;8.596;2024-02-26T12:30:46;13.70;;;9.07;;
1721;SDS011;858;53.190;8.596;2024-02-26T12:33:13;14.50;;;9.63;;
1721;SDS011;858;53.190;8.596;2024-02-26T12:35:40;11.97;;;9.30;;
1721;SDS011;858;53.190;8.596;2024-02-26T12:38:07;12.97;;;9.47;;
1721;SDS011;858;53.190;8.596;2024-02-26T12:40:34;15.43;;;9.13;;
1721;SDS011;858;53.190;8.596;2024-02-26T12:43:00;9.37;;;7.50;;
1721;SDS011;858;53.190;8.596;2024-02-26T12:45:27;13.53;;;8.90;;
1721;SDS011;858;53.190;8.596;2024-02-26T12:47:54;16.03;;;10.00;;
1721;SDS011;858;53.190;8.596;2024-02-26T12:50:23;16.10;;;10.40;;
1721;SDS011;858;53.190;8.596;2024-02-26T12:52:50;14.60;;;10.10;;
1721;SDS011;858;53.190;8.596;2024-02-26T12:55:22;14.33;;;9.73;;
1721;SDS011;858;53.190;8.596;2024-02-26T12:57:49;12.90;;;10.97;;
1721;SDS011;858;53.190;8.596;2024-02-26T13:00:17;12.73;;;8.90;;
1721;SDS011;858;53.190;8.596;2024-02-26T13:02:44;14.13;;;9.53;;
1721;SDS011;858;53.190;8.596;2024-02-26T13:05:11;11.93;;;8.40;;
1721;SDS011;858;53.190;8.596;2024-02-26T13:07:40;13.17;;;9.40;;
1721;SDS011;858;53.190;8.596;2024-02-26T13:10:07;12.40;;;8.63;;
1721;SDS011;858;53.190;8.596;2024-02-26T13:12:36;13.60;;;9.53;;
1721;SDS011;858;53.190;8.596;2024-02-26T13:15:02;12.43;;;8.90;;
1721;SDS011;858;53.190;8.596;2024-02-26T13:17:31;12.93;;;9.07;;
1721;SDS011;858;53.190;8.596;2024-02-26T13:19:57;12.87;;;9.27;;
1721;SDS011;858;53.190;8.596;2024-02-26T13:22:24;11.67;;;8.67;;
1721;SDS011;858;53.190;8.596;2024-02-26T13:24:53;12.20;;;9.50;;
1721;SDS011;858;53.190;8.596;2024-02-26T13:27:20;11.47;;;9.17;;
1721;SDS011;858;53.190;8.596;2024-02-26T13:29:49;14.60;;;9.77;;
1721;SDS011;858;53.190;8.596;2024-02-26T13:32:15;14.07;;;10.33;;
1721;SDS011;858;53.190;8.596;2024-02-26T13:34:41;11.30;;;8.53;;
1721;SDS011;858;53.190;8.596;2024-02-26T13:37:08;13.70;;;9.93;;
1721;SDS011;858;53.190;8.596;2024-02-26T13:39:36;13.60;;;9.03;;
1721;SDS011;858;53.190;8.596;2024-02-26T13:42:05;13.73;;;9.70;;
1721;SDS011;858;53.190;8.596;2024-02-26T13:44:33;14.20;;;9.83;;
1721;SDS011;858;53.190;8.596;2024-02-26T13:47:07;13.60;;;10.70;;
1721;SDS011;858;53.190;8.596;2024-02-26T13:49:34;15.57;;;10.57;;
1721;SDS011;858;53.190;8.596;2024-02-26T13:52:00;13.23;;;10.60;;
1721;SDS011;858;53.190;8.596;2024-02-26T13:54:27;14.80;;;9.83;;
1721;SDS011;858;53.190;8.596;2024-02-26T13:56:53;14.67;;;10.30;;
1721;SDS011;858;53.190;8.596;2024-02-26T13:59:20;13.10;;;9.03;;
1721;SDS011;858;53.190;8.596;2024-02-26T14:01:46;13.00;;;10.43;;
1721;SDS011;858;53.190;8.596;2024-02-26T14:04:14;14.77;;;9.60;;
1721;SDS011;858;53.190;8.596;2024-02-26T14:06:42;15.47;;;10.10;;
1721;SDS011;858;53.190;8.596;2024-02-26T14:09:08;13.30;;;9.33;;
1721;SDS011;858;53.190;8.596;2024-02-26T14:11:35;12.53;;;9.57;;
1721;SDS011;858;53.190;8.596;2024-02-26T14:14:01;17.10;;;10.30;;
1721;SDS011;858;53.190;8.596;2024-02-26T14:16:28;14.73;;;10.67;;
1721;SDS011;858;53.190;8.596;2024-02-26T14:18:54;11.33;;;9.47;;
1721;SDS011;858;53.190;8.596;2024-02-26T14:21:22;12.20;;;10.20;;
1721;SDS011;858;53.190;8.596;2024-02-26T14:23:49;13.80;;;9.90;;
1721;SDS011;858;53.190;8.596;2024-02-26T14:26:15;11.37;;;8.70;;
1721;SDS011;858;53.190;8.596;2024-02-26T14:28:41;11.90;;;9.57;;
1721;SDS011;858;53.190;8.596;2024-02-26T14:31:08;11.00;;;8.77;;
1721;SDS011;858;53.190;8.596;2024-02-26T14:33:37;9.70;;;8.50;;
1721;SDS011;858;53.190;8.596;2024-02-26T14:36:03;12.77;;;9.27;;
1721;SDS011;858;53.190;8.596;2024-02-26T14:38:31;13.93;;;9.00;;
1721;SDS011;858;53.190;8.596;2024-02-26T14:40:58;10.50;;;8.73;;
1721;SDS011;858;53.190;8.596;2024-02-26T14:43:26;11.53;;;9.03;;
1721;SDS011;858;53.190;8.596;2024-02-26T14:45:52;9.33;;;7.70;;
1721;SDS011;858;53.190;8.596;2024-02-26T14:48:18;11.93;;;8.73;;
1721;SDS011;858;53.190;8.596;2024-02-26T14:50:45;12.10;;;7.77;;
1721;SDS011;858;53.190;8.596;2024-02-26T14:53:12;12.20;;;8.70;;
1721;SDS011;858;53.190;8.596;2024-02-26T14:55:39;10.83;;;8.30;;
1721;SDS011;858;53.190;8.596;2024-02-26T14:58:07;11.07;;;7.97;;
1721;SDS011;858;53.190;8.596;2024-02-26T15:00:35;10.00;;;7.80;;
1721;SDS011;858;53.190;8.596;2024-02-26T15:03:02;18.57;;;9.33;;
1721;SDS011;858;53.190;8.596;2024-02-26T15:05:28;11.10;;;8.53;;
1721;SDS011;858;53.190;8.596;2024-02-26T15:07:55;10.77;;;9.00;;